createdAt,value
2023-05-14T00:00:40.555Z,8.50
2023-05-14T00:04:27.619Z,9.80
2023-05-14T00:08:15.300Z,8.40
2023-05-14T00:11:42.694Z,8.10
2023-05-14T00:15:03.299Z,9.00
2023-05-14T00:18:25.334Z,7.00
2023-05-14T00:25:54.308Z,14.30
2023-05-14T00:29:24.156Z,7.70
2023-05-14T00:32:41.264Z,11.10
2023-05-14T00:36:28.422Z,8.10
2023-05-14T00:40:19.314Z,9.70
2023-05-14T00:43:33.687Z,12.10
2023-05-14T00:47:23.319Z,8.70
2023-05-14T00:51:16.279Z,11.90
2023-05-14T00:55:08.281Z,11.60
2023-05-14T00:58:29.286Z,8.40
2023-05-14T01:02:02.957Z,9.30
2023-05-14T01:06:05.303Z,9.60
2023-05-14T01:09:21.657Z,13.70
2023-05-14T01:12:56.318Z,8.60
2023-05-14T01:19:53.288Z,7.90
2023-05-14T01:23:22.294Z,7.50
2023-05-14T01:26:58.326Z,10.80
2023-05-14T01:30:56.255Z,7.30
2023-05-14T01:33:55.472Z,8.10
2023-05-14T01:36:23.847Z,7.90
2023-05-14T01:39:21.331Z,7.10
2023-05-14T01:43:20.332Z,7.30
2023-05-14T01:47:21.334Z,7.80
2023-05-14T01:51:04.253Z,7.30
2023-05-14T01:54:16.315Z,8.90
2023-05-14T01:57:49.244Z,7.20
2023-05-14T02:01:20.371Z,11.80
2023-05-14T02:04:38.273Z,10.80
2023-05-14T02:07:53.347Z,8.40
2023-05-14T02:11:39.641Z,7.60
2023-05-14T02:15:12.333Z,7.80
2023-05-14T02:19:03.332Z,7.10
2023-05-14T02:22:49.307Z,7.90
2023-05-14T02:26:14.277Z,8.90
2023-05-14T02:29:58.308Z,7.40
2023-05-14T02:33:22.251Z,8.70
2023-05-14T02:36:49.314Z,10.20
2023-05-14T02:40:42.335Z,8.30
2023-05-14T02:44:22.296Z,9.50
2023-05-14T02:48:18.293Z,8.70
2023-05-14T02:52:26.318Z,9.40
2023-05-14T02:56:27.366Z,7.60
2023-05-14T03:00:22.462Z,11.50
2023-05-14T03:03:11.544Z,9.10
2023-05-14T03:05:39.918Z,8.50
2023-05-14T03:08:07.847Z,10.90
2023-05-14T03:11:11.637Z,9.30
2023-05-14T03:14:34.349Z,10.20
2023-05-14T03:18:16.399Z,15.90
2023-05-14T03:22:05.306Z,6.90
2023-05-14T03:25:14.160Z,6.40
2023-05-14T03:28:36.306Z,11.50
2023-05-14T03:32:30.321Z,8.00
2023-05-14T03:44:19.354Z,8.00
2023-05-14T03:51:53.311Z,9.40
2023-05-14T03:55:37.332Z,8.20
2023-05-14T03:59:26.268Z,7.00
2023-05-14T04:06:48.299Z,8.40
2023-05-14T04:10:57.342Z,9.10
2023-05-14T04:15:01.292Z,8.30
2023-05-14T04:18:59.376Z,6.80
2023-05-14T04:22:58.265Z,5.90
2023-05-14T04:26:59.355Z,8.80
2023-05-14T04:30:38.338Z,6.90
2023-05-14T04:34:28.310Z,10.50
2023-05-14T04:38:32.324Z,6.50
2023-05-14T04:42:47.299Z,6.60
2023-05-14T04:46:51.334Z,11.80
2023-05-14T04:50:23.477Z,6.30
2023-05-14T04:54:15.323Z,7.80
2023-05-14T04:58:01.321Z,5.60
2023-05-14T05:02:12.257Z,5.80
2023-05-14T05:05:43.313Z,6.20
2023-05-14T05:09:20.281Z,7.60
2023-05-14T05:13:32.322Z,7.00
2023-05-14T05:20:26.333Z,7.00
2023-05-14T05:24:04.373Z,5.90
2023-05-14T05:28:09.311Z,8.10
2023-05-14T05:31:20.382Z,7.90
2023-05-14T05:34:57.313Z,6.70
2023-05-14T05:38:49.286Z,5.70
2023-05-14T05:43:13.338Z,6.00
2023-05-14T05:46:42.286Z,7.30
2023-05-14T05:50:21.572Z,7.30
2023-05-14T05:54:12.319Z,8.80
2023-05-14T06:01:27.354Z,7.80
2023-05-14T06:05:14.390Z,15.20
2023-05-14T06:08:27.332Z,9.20
2023-05-14T06:11:50.277Z,9.20
2023-05-14T06:15:38.335Z,5.90
2023-05-14T06:18:47.282Z,7.60
2023-05-14T06:22:14.308Z,7.10
2023-05-14T06:26:25.281Z,5.40
2023-05-14T06:29:28.647Z,5.60
2023-05-14T06:33:14.628Z,4.00
2023-05-14T06:36:38.513Z,3.90
2023-05-14T06:40:19.317Z,6.30
2023-05-14T06:44:32.310Z,3.50
2023-05-14T06:48:38.349Z,2.90
2023-05-14T06:52:24.688Z,4.20
2023-05-14T06:56:33.422Z,3.80
2023-05-14T07:00:06.914Z,5.20
2023-05-14T07:03:09.326Z,3.60
2023-05-14T07:06:58.419Z,4.20
2023-05-14T07:09:26.663Z,3.90
2023-05-14T07:11:55.632Z,2.70
2023-05-14T07:14:43.417Z,4.10
2023-05-14T07:17:15.239Z,5.90
2023-05-14T07:19:43.751Z,4.50
2023-05-14T07:22:11.969Z,6.40
2023-05-14T07:24:40.107Z,6.30
2023-05-14T07:27:09.051Z,6.30
2023-05-14T07:29:37.309Z,3.00
2023-05-14T07:32:05.662Z,5.00
2023-05-14T07:34:34.473Z,4.60
2023-05-14T07:37:03.481Z,3.90
2023-05-14T07:39:38.851Z,6.00
2023-05-14T07:42:07.230Z,2.90
2023-05-14T07:44:37.546Z,2.70
2023-05-14T07:47:07.671Z,5.40
2023-05-14T07:49:37.244Z,4.80
2023-05-14T07:52:05.668Z,3.50
2023-05-14T07:54:36.725Z,3.40
2023-05-14T07:57:07.497Z,3.10
2023-05-14T07:59:36.147Z,3.90
2023-05-14T08:02:04.419Z,4.80
2023-05-14T08:04:32.904Z,3.20
2023-05-14T08:07:09.727Z,4.80
2023-05-14T08:09:37.873Z,4.30
2023-05-14T08:12:10.055Z,3.40
2023-05-14T08:14:37.965Z,3.30
2023-05-14T08:17:06.477Z,5.80
2023-05-14T08:19:35.158Z,2.90
2023-05-14T08:22:05.588Z,3.80
2023-05-14T08:24:38.476Z,5.70
2023-05-14T08:27:07.363Z,2.80
2023-05-14T08:29:37.922Z,4.60
2023-05-14T08:32:22.114Z,3.30
2023-05-14T08:34:52.367Z,8.40
2023-05-14T08:37:28.534Z,5.20
2023-05-14T08:39:57.181Z,2.50
2023-05-14T08:42:35.189Z,2.90
2023-05-14T08:45:05.804Z,2.80
2023-05-14T08:47:35.303Z,2.20
2023-05-14T08:50:07.542Z,3.50
2023-05-14T08:52:44.532Z,2.20
2023-05-14T08:55:12.999Z,2.70
2023-05-14T08:57:41.183Z,2.50
2023-05-14T09:00:13.452Z,2.10
2023-05-14T09:02:42.798Z,2.20
2023-05-14T09:05:11.119Z,3.40
2023-05-14T09:07:42.891Z,3.60
2023-05-14T09:10:11.488Z,2.80
2023-05-14T09:12:40.105Z,2.50
2023-05-14T09:15:08.638Z,4.70
2023-05-14T09:17:51.667Z,3.60
2023-05-14T09:20:37.348Z,3.50
2023-05-14T09:23:27.164Z,6.20
2023-05-14T09:25:55.030Z,4.30
2023-05-14T09:29:10.572Z,4.40
2023-05-14T09:32:38.760Z,4.00
2023-05-14T09:36:01.833Z,6.70
2023-05-14T09:39:09.813Z,2.60
2023-05-14T09:42:23.393Z,2.40
2023-05-14T09:46:11.672Z,4.20
2023-05-14T09:49:40.502Z,2.90
2023-05-14T09:52:56.076Z,4.60
2023-05-14T09:56:24.775Z,3.10
2023-05-14T09:59:42.347Z,2.10
2023-05-14T10:03:06.465Z,2.60
2023-05-14T10:06:37.359Z,4.80
2023-05-14T10:09:16.937Z,4.60
2023-05-14T10:12:46.326Z,3.80
2023-05-14T10:16:26.992Z,4.80
2023-05-14T10:19:55.176Z,3.80
2023-05-14T10:23:24.693Z,5.10
2023-05-14T10:29:24.110Z,3.50
2023-05-14T10:32:29.649Z,3.10
2023-05-14T10:35:01.703Z,4.20
2023-05-14T10:37:31.094Z,4.50
2023-05-14T10:40:06.220Z,4.40
2023-05-14T10:43:14.212Z,4.90
2023-05-14T10:45:46.049Z,2.90
2023-05-14T10:48:14.628Z,3.10
2023-05-14T10:50:43.781Z,3.00
2023-05-14T10:53:14.019Z,4.00
2023-05-14T10:55:47.344Z,2.60
2023-05-14T10:58:16.831Z,7.40
2023-05-14T11:00:49.913Z,5.70
2023-05-14T11:03:18.826Z,3.70
2023-05-14T11:05:51.274Z,8.60
2023-05-14T11:08:23.954Z,2.10
2023-05-14T11:11:11.560Z,2.50
2023-05-14T11:13:39.892Z,4.30
2023-05-14T11:16:21.563Z,3.30
2023-05-14T11:19:07.752Z,4.00
2023-05-14T11:21:37.923Z,2.10
2023-05-14T11:24:07.370Z,2.50
2023-05-14T11:26:36.587Z,2.40
2023-05-14T11:29:08.626Z,7.90
2023-05-14T11:31:36.873Z,3.50
2023-05-14T11:34:07.114Z,2.30
2023-05-14T11:36:36.747Z,3.10
2023-05-14T11:39:06.016Z,5.50
2023-05-14T11:41:34.005Z,6.70
2023-05-14T11:44:03.289Z,3.80
2023-05-14T11:46:31.670Z,5.70
2023-05-14T11:48:59.469Z,2.80
2023-05-14T11:51:27.340Z,1.60
2023-05-14T11:53:55.343Z,5.90
2023-05-14T11:56:23.493Z,2.30
2023-05-14T11:58:57.589Z,2.20
2023-05-14T12:01:25.681Z,3.80
2023-05-14T12:03:53.625Z,3.10
2023-05-14T12:06:21.820Z,3.30
2023-05-14T12:08:49.943Z,2.20
2023-05-14T12:11:31.819Z,4.30
2023-05-14T12:14:00.644Z,4.80
2023-05-14T12:16:32.728Z,1.60
2023-05-14T12:19:05.855Z,4.60
2023-05-14T12:21:36.604Z,5.50
2023-05-14T12:24:20.184Z,6.00
2023-05-14T12:26:51.824Z,3.80
2023-05-14T12:29:22.168Z,4.70
2023-05-14T12:31:51.165Z,3.00
2023-05-14T12:34:21.126Z,4.20
2023-05-14T12:36:52.911Z,6.00
2023-05-14T12:39:21.083Z,4.50
2023-05-14T12:41:49.697Z,2.70
2023-05-14T12:44:18.823Z,2.80
2023-05-14T12:46:49.933Z,2.90
2023-05-14T12:49:21.496Z,3.30
2023-05-14T12:52:22.705Z,2.60
2023-05-14T12:55:00.701Z,1.70
2023-05-14T12:57:30.629Z,2.90
2023-05-14T12:59:58.606Z,2.20
2023-05-14T13:02:29.098Z,2.80
2023-05-14T13:05:07.262Z,5.40
2023-05-14T13:07:37.317Z,3.80
2023-05-14T13:10:23.548Z,1.70
2023-05-14T13:12:54.120Z,3.80
2023-05-14T13:15:27.433Z,3.70
2023-05-14T13:18:15.110Z,2.50
2023-05-14T13:20:59.744Z,4.10
2023-05-14T13:23:33.959Z,6.00
2023-05-14T13:26:05.873Z,3.40
2023-05-14T13:29:06.352Z,4.10
2023-05-14T13:31:53.749Z,2.90
2023-05-14T13:34:37.716Z,2.20
2023-05-14T13:37:45.397Z,3.40
2023-05-14T13:40:28.436Z,2.10
2023-05-14T13:43:07.798Z,4.30
2023-05-14T13:45:53.438Z,2.30
2023-05-14T13:48:29.591Z,3.50
2023-05-14T13:54:27.489Z,6.20
2023-05-14T13:57:14.530Z,3.10
2023-05-14T13:59:47.982Z,3.10
2023-05-14T14:02:23.047Z,3.70
2023-05-14T14:04:51.667Z,2.10
2023-05-14T14:07:27.006Z,3.40
2023-05-14T14:10:41.356Z,4.10
2023-05-14T14:13:13.571Z,2.30
2023-05-14T14:15:44.187Z,3.10
2023-05-14T14:18:12.852Z,2.00
2023-05-14T14:20:59.534Z,2.10
2023-05-14T14:23:44.161Z,2.80
2023-05-14T14:26:12.667Z,3.30
2023-05-14T14:28:55.388Z,1.70
2023-05-14T14:32:22.343Z,1.90
2023-05-14T14:35:03.660Z,3.30
2023-05-14T14:37:33.759Z,2.00
2023-05-14T14:40:07.489Z,2.60
2023-05-14T14:42:37.549Z,1.60
2023-05-14T14:45:14.097Z,4.50
2023-05-14T14:47:46.028Z,4.30
2023-05-14T14:50:44.384Z,3.30
2023-05-14T14:53:14.192Z,2.30
2023-05-14T14:55:42.249Z,3.00
2023-05-14T14:58:14.330Z,1.70
2023-05-14T15:00:43.528Z,1.90
2023-05-14T15:03:19.019Z,2.40
2023-05-14T15:05:48.337Z,3.50
2023-05-14T15:08:32.569Z,1.80
2023-05-14T15:11:10.325Z,1.40
2023-05-14T15:13:40.138Z,3.70
2023-05-14T15:16:16.043Z,2.20
2023-05-14T15:19:17.462Z,4.00
2023-05-14T15:21:45.884Z,3.90
2023-05-14T15:24:13.907Z,2.30
2023-05-14T15:26:57.789Z,3.90
2023-05-14T15:30:25.329Z,3.00
2023-05-14T15:33:43.866Z,2.60
2023-05-14T15:36:39.610Z,3.50
2023-05-14T15:40:10.789Z,7.00
2023-05-14T15:43:59.609Z,2.00
2023-05-14T15:50:57.644Z,2.90
2023-05-14T15:53:47.121Z,2.00
2023-05-14T15:57:28.860Z,2.70
2023-05-14T16:00:25.116Z,6.20
2023-05-14T16:03:56.208Z,8.10
2023-05-14T16:07:16.578Z,5.70
2023-05-14T16:10:43.314Z,3.10
2023-05-14T16:14:12.316Z,7.50
2023-05-14T16:21:14.279Z,2.60
2023-05-14T16:24:44.702Z,4.10
2023-05-14T16:27:38.478Z,4.60
2023-05-14T16:31:13.296Z,3.10
2023-05-14T16:34:30.749Z,2.20
2023-05-14T16:37:59.569Z,5.60
2023-05-14T16:40:52.753Z,4.50
2023-05-14T16:43:52.793Z,4.10
2023-05-14T16:47:02.162Z,1.90
2023-05-14T16:49:30.134Z,2.20
2023-05-14T16:51:58.312Z,3.00
2023-05-14T16:54:26.570Z,4.70
2023-05-14T16:56:56.069Z,2.80
2023-05-14T16:59:25.080Z,2.80
2023-05-14T17:01:55.716Z,5.30
2023-05-14T17:04:26.597Z,2.50
2023-05-14T17:06:54.883Z,5.70
2023-05-14T17:09:22.696Z,4.00
2023-05-14T17:11:50.866Z,2.90
2023-05-14T17:14:18.760Z,3.30
2023-05-14T17:16:46.818Z,4.10
2023-05-14T17:19:14.856Z,3.80
2023-05-14T17:21:42.840Z,3.60
2023-05-14T17:24:10.699Z,3.30
2023-05-14T17:26:38.576Z,2.60
2023-05-14T17:29:06.415Z,4.70
2023-05-14T17:31:34.400Z,2.50
2023-05-14T17:34:02.274Z,3.30
2023-05-14T17:36:31.585Z,2.40
2023-05-14T17:38:59.421Z,2.40
2023-05-14T17:41:27.282Z,4.30
2023-05-14T17:43:55.204Z,2.50
2023-05-14T17:46:23.370Z,9.60
2023-05-14T17:48:51.324Z,3.50
2023-05-14T17:51:19.250Z,4.00
2023-05-14T17:53:47.303Z,5.80
2023-05-14T17:56:17.556Z,5.40
2023-05-14T17:58:46.198Z,2.80
2023-05-14T18:01:14.182Z,2.00
2023-05-14T18:03:42.356Z,3.70
2023-05-14T18:06:10.574Z,2.00
2023-05-14T18:08:38.397Z,4.00
2023-05-14T18:11:06.284Z,2.60
2023-05-14T18:13:34.107Z,2.40
2023-05-14T18:16:02.205Z,5.20
2023-05-14T18:18:31.612Z,4.70
2023-05-14T18:20:59.526Z,3.60
2023-05-14T18:23:27.348Z,4.20
2023-05-14T18:25:57.529Z,3.00
2023-05-14T18:28:26.442Z,2.30
2023-05-14T18:30:54.317Z,4.00
2023-05-14T18:33:22.206Z,2.20
2023-05-14T18:35:50.124Z,3.00
2023-05-14T18:38:19.325Z,2.50
2023-05-14T18:40:49.452Z,3.20
2023-05-14T18:43:18.711Z,2.00
2023-05-14T18:45:47.430Z,4.50
2023-05-14T18:48:16.380Z,3.30
2023-05-14T18:50:44.294Z,2.80
2023-05-14T18:53:12.122Z,2.40
2023-05-14T18:55:40.148Z,2.90
2023-05-14T18:58:08.282Z,7.80
2023-05-14T19:00:36.130Z,3.70
2023-05-14T19:03:04.090Z,4.00
2023-05-14T19:05:32.216Z,3.90
2023-05-14T19:08:00.886Z,3.50
2023-05-14T19:10:28.856Z,2.20
2023-05-14T19:12:57.534Z,2.60
2023-05-14T19:15:25.892Z,3.50
2023-05-14T19:17:54.172Z,4.30
2023-05-14T19:20:22.167Z,6.00
2023-05-14T19:22:50.339Z,2.80
2023-05-14T19:25:18.217Z,3.30
2023-05-14T19:27:50.498Z,2.70
2023-05-14T19:30:19.896Z,2.20
2023-05-14T19:32:47.758Z,3.70
2023-05-14T19:35:15.648Z,5.20
2023-05-14T19:37:43.497Z,3.00
2023-05-14T19:40:11.455Z,2.40
2023-05-14T19:42:39.283Z,3.40
2023-05-14T19:45:07.485Z,3.80
2023-05-14T19:47:35.334Z,2.00
2023-05-14T19:50:03.384Z,3.70
2023-05-14T19:52:31.342Z,3.00
2023-05-14T19:54:59.171Z,6.50
2023-05-14T19:57:27.055Z,6.70
2023-05-14T19:59:54.882Z,3.60
2023-05-14T20:02:22.864Z,3.20
2023-05-14T20:04:51.591Z,5.40
2023-05-14T20:07:20.156Z,2.70
2023-05-14T20:09:48.042Z,2.10
2023-05-14T20:12:16.734Z,2.10
2023-05-14T20:14:44.850Z,4.20
2023-05-14T20:17:12.964Z,2.50
2023-05-14T20:19:41.239Z,2.90
2023-05-14T20:22:09.260Z,3.10
2023-05-14T20:24:37.134Z,4.80
2023-05-14T20:27:07.530Z,4.00
2023-05-14T20:29:35.594Z,4.10
2023-05-14T20:32:03.539Z,5.70
2023-05-14T20:34:31.548Z,4.90
2023-05-14T20:36:59.382Z,3.30
2023-05-14T20:39:27.158Z,3.00
2023-05-14T20:41:55.029Z,4.00
2023-05-14T20:44:22.900Z,4.90
2023-05-14T20:46:51.132Z,5.60
2023-05-14T20:49:19.061Z,3.90
2023-05-14T20:51:46.909Z,3.30
2023-05-14T20:54:14.791Z,6.80
2023-05-14T20:56:42.718Z,2.60
2023-05-14T20:59:10.571Z,3.50
2023-05-14T21:01:38.493Z,3.10
2023-05-14T21:04:07.022Z,3.30
2023-05-14T21:06:35.312Z,5.00
2023-05-14T21:09:03.149Z,2.90
2023-05-14T21:11:31.057Z,6.80
2023-05-14T21:13:58.867Z,3.10
2023-05-14T21:16:26.911Z,3.50
2023-05-14T21:18:54.827Z,4.50
2023-05-14T21:21:23.085Z,3.30
2023-05-14T21:23:50.931Z,3.40
2023-05-14T21:26:21.579Z,4.80
2023-05-14T21:28:49.450Z,5.80
2023-05-14T21:31:17.398Z,2.50
2023-05-14T21:33:45.324Z,3.50
2023-05-14T21:36:13.419Z,3.20
2023-05-14T21:38:41.452Z,3.90
2023-05-14T21:41:09.329Z,3.80
2023-05-14T21:43:37.234Z,4.10
2023-05-14T21:46:05.161Z,3.10
2023-05-14T21:48:33.655Z,3.00
2023-05-14T21:51:02.019Z,5.80
2023-05-14T21:53:29.847Z,3.70
2023-05-14T21:55:57.798Z,3.30
2023-05-14T21:58:26.680Z,4.00
2023-05-14T22:00:54.564Z,3.50
2023-05-14T22:03:22.637Z,2.50
2023-05-14T22:05:51.539Z,2.90
2023-05-14T22:08:19.338Z,3.10
2023-05-14T22:10:47.507Z,4.00
2023-05-14T22:13:17.581Z,2.70
2023-05-14T22:15:48.449Z,4.60
2023-05-14T22:18:18.185Z,4.60
2023-05-14T22:20:47.963Z,3.20
2023-05-14T22:23:15.977Z,3.30
2023-05-14T22:25:43.769Z,4.40
2023-05-14T22:28:11.677Z,4.60
2023-05-14T22:30:39.540Z,3.90
2023-05-14T22:33:07.357Z,4.80
2023-05-14T22:35:35.374Z,3.60
2023-05-14T22:38:03.206Z,3.90
2023-05-14T22:40:31.045Z,5.20
2023-05-14T22:42:58.926Z,4.70
2023-05-14T22:45:27.028Z,9.30
2023-05-14T22:47:55.006Z,6.20
2023-05-14T22:50:22.825Z,3.90
2023-05-14T22:52:54.497Z,4.70
2023-05-14T22:55:22.401Z,2.90
2023-05-14T22:57:50.371Z,4.70
2023-05-14T23:00:18.710Z,2.90
2023-05-14T23:02:46.776Z,4.20
2023-05-14T23:05:15.006Z,5.60
2023-05-14T23:07:43.079Z,6.10
2023-05-14T23:10:11.400Z,5.40
2023-05-14T23:12:39.276Z,3.70
2023-05-14T23:15:07.608Z,5.20
2023-05-14T23:17:35.492Z,4.10
2023-05-14T23:20:05.716Z,3.50
2023-05-14T23:22:33.603Z,2.60
2023-05-14T23:25:01.512Z,4.70
2023-05-14T23:27:29.447Z,5.10
2023-05-14T23:29:57.349Z,4.10
2023-05-14T23:32:25.286Z,5.60
2023-05-14T23:34:53.171Z,3.70
2023-05-14T23:37:21.638Z,2.50
2023-05-14T23:39:49.582Z,4.50
2023-05-14T23:42:17.543Z,6.40
2023-05-14T23:44:45.450Z,3.50
2023-05-14T23:47:13.521Z,3.90
2023-05-14T23:50:27.966Z,3.70
2023-05-14T23:53:47.432Z,5.90
2023-05-14T23:57:22.376Z,3.20
